NCAR-RAP Real-Time Weather Data

Output produced by METARs form (23 June 2018  19:36 UTC)
found at http://weather.rap.ucar.edu/surface/
 
RJBE 231200Z 09004KT 9999 FEW020 BKN060 21/19 Q1005
RJBE 231100Z 10003KT 9999 FEW020 SCT050 BKN070 21/18 Q1004
RJBE 231000Z 03003KT 360V110 9999 FEW015 SCT040 BKN080 22/18 Q1005
RJBE 230900Z 05004KT 9999 VCSH FEW015 SCT035 BKN045 22/19 Q1005
RJBE 230800Z 05005KT 9999 FEW015 BKN050 21/19 Q1004
RJBE 230700Z 04006KT 9999 FEW010 SCT025 BKN045 21/19 Q1004
RJBE 230600Z 36007KT 9999 -SHRA FEW004 BKN008 BKN020 20/19 Q1005
RJBE 230500Z 06013KT 4500 SHRA BR FEW004 SCT010 BKN020 19/19 Q1003
RJBE 230400Z 05007KT 3000 R09/1200V1600D SHRA BR FEW006 SCT010 BKN020 20/19 Q1004
RJBE 230300Z 03010KT 9999 -RA FEW008 SCT040 BKN070 23/18 Q1004
RJBE 230200Z 07010KT 9999 -RA FEW035 SCT045 BKN100 24/19 Q1004
RJBE 230100Z 07012KT 9999 VCSH NSC 24/17 Q1003
RJBE 230000Z 05012KT 9999 VCSH NSC 23/17 Q1003
RJBE 222300Z 06009KT 9999 -RA NSC 22/19 Q1004
RJBE 222200Z 00000KT 9999 VCSH FEW025 SCT120 BKN150 21/20 Q1006
RJBE 221200Z 23009KT 9999 FEW007 BKN/// 22/21 Q1009
RJBE 221100Z 22016KT 9999 FEW008 BKN/// 22/21 Q1009
RJBE 221000Z 23014KT CAVOK 23/20 Q1008
RJBE 220900Z 28006KT CAVOK 25/14 Q1007
RJBE 220800Z 26006KT 9999 FEW035 BKN/// 26/19 Q1007
RJBE 220700Z 24006KT 9999 FEW030 BKN/// 26/18 Q1007
RJBE 220600Z 24006KT 9999 FEW030 BKN/// 26/19 Q1008
RJBE 220500Z 24006KT 9999 FEW030 BKN/// 25/20 Q1008
RJBE 220400Z 23005KT 9999 FEW025 BKN/// 24/21 Q1009
RJBE 220300Z 25003KT 9999 FEW020 BKN/// 23/20 Q1009
RJBE 220200Z 23003KT 9000 FEW020 BKN/// 23/20 Q1010
RJBE 220100Z 20008KT 8000 FEW020 BKN/// 23/20 Q1010
RJBE 220000Z 23003KT 8000 FEW015 BKN/// 22/19 Q1010
RJBE 212300Z 16003KT 8000 FEW015 BKN/// 22/19 Q1010
RJBE 212200Z 11003KT 090V180 7000 FEW008 BKN/// 21/18 Q1010
RJBE 211200Z 28007KT 250V310 9999 FEW020 BKN/// 21/20 Q1007
RJBE 211100Z 27005KT 9999 FEW025 BKN/// 21/19 Q1007
RJBE 211000Z 23010KT 9999 FEW025 BKN/// 22/19 Q1006
RJBE 210900Z 25005KT 9999 FEW025 BKN/// 23/20 Q1006
RJBE 210800Z 22005KT 9999 FEW020 BKN/// 23/20 Q1005